Time;durP1;ratioP1;P1;durP2;ratioP2;P2;SDS_P1;SDS_P2;PMS_P1;PMS_P2;Temp;Humidity;BMP_temperature;BMP_pressure;BME280_temperature;BME280_humidity;BME280_pressure;Samples;Min_cycle;Max_cycle;Signal;HPM_P1;HPM_P2
2023/07/19 00:00:56;;;;;;;5.45;2.60;;;17.60;99.90;;;;;;5136964;27;20039;-62
2023/07/19 00:03:22;;;;;;;5.28;2.58;;;17.60;99.90;;;;;;5155102;27;20141;-63
2023/07/19 00:05:48;;;;;;;6.15;3.03;;;17.60;99.90;;;;;;5155341;27;20041;-62
2023/07/19 00:08:14;;;;;;;6.25;3.10;;;17.50;99.90;;;;;;5136562;27;20099;-62
2023/07/19 00:10:40;;;;;;;5.18;2.10;;;17.50;99.90;;;;;;5136710;27;20039;-63
2023/07/19 00:13:06;;;;;;;5.20;2.17;;;17.50;99.90;;;;;;5155009;27;20086;-63
2023/07/19 00:15:33;;;;;;;6.07;2.70;;;17.50;99.90;;;;;;5136802;27;20035;-62
2023/07/19 00:17:59;;;;;;;8.40;3.00;;;17.50;99.90;;;;;;5155210;27;20521;-62
2023/07/19 00:20:25;;;;;;;6.18;2.70;;;17.50;99.90;;;;;;5154983;27;20076;-62
2023/07/19 00:22:50;;;;;;;5.30;1.92;;;17.50;99.90;;;;;;5155051;27;20042;-63
2023/07/19 00:25:17;;;;;;;7.30;3.70;;;17.60;99.90;;;;;;5155158;27;20030;-63
2023/07/19 00:27:43;;;;;;;11.55;4.30;;;17.60;99.90;;;;;;5136269;27;20054;-62
2023/07/19 00:30:10;;;;;;;8.80;4.68;;;17.50;99.90;;;;;;5136236;27;20054;-62
2023/07/19 00:32:35;;;;;;;5.10;2.30;;;17.40;99.90;;;;;;5119385;27;20049;-63
2023/07/19 00:35:01;;;;;;;5.68;2.70;;;17.40;99.90;;;;;;5154932;27;20117;-63
2023/07/19 00:37:27;;;;;;;8.98;4.30;;;17.40;99.90;;;;;;5154674;27;20037;-63
2023/07/19 00:39:53;;;;;;;6.82;3.60;;;17.40;99.90;;;;;;5155226;27;20435;-63
2023/07/19 00:42:18;;;;;;;7.90;3.40;;;17.40;99.90;;;;;;5136532;27;20095;-63
2023/07/19 00:44:44;;;;;;;8.95;4.32;;;17.40;99.90;;;;;;5136030;27;20092;-63
2023/07/19 00:47:11;;;;;;;8.23;4.28;;;17.40;99.90;;;;;;5118970;27;20037;-63
2023/07/19 00:49:40;;;;;;;10.30;4.32;;;17.50;99.90;;;;;;5154786;27;20042;-63
2023/07/19 00:52:07;;;;;;;8.35;4.28;;;17.60;99.90;;;;;;5119274;27;20121;-63
2023/07/19 00:54:33;;;;;;;9.00;4.35;;;17.50;99.90;;;;;;5154458;27;20033;-63
2023/07/19 00:56:58;;;;;;;8.13;4.22;;;17.40;99.90;;;;;;5136004;27;20122;-62
2023/07/19 00:59:26;;;;;;;9.80;4.57;;;17.20;99.90;;;;;;5154721;27;20026;-63
2023/07/19 01:01:52;;;;;;;9.77;4.32;;;17.00;99.90;;;;;;5154767;27;20137;-62
2023/07/19 01:04:18;;;;;;;10.23;4.32;;;16.90;99.90;;;;;;5154417;27;20535;-63
2023/07/19 01:06:44;;;;;;;7.18;3.92;;;16.90;99.90;;;;;;5136076;27;20094;-63
2023/07/19 01:09:11;;;;;;;7.72;3.90;;;16.90;99.90;;;;;;5154602;27;20030;-62
2023/07/19 01:11:37;;;;;;;8.30;3.85;;;16.90;99.90;;;;;;5139489;27;20118;-62
2023/07/19 01:14:03;;;;;;;7.47;4.05;;;16.80;99.90;;;;;;5158550;27;20138;-63
2023/07/19 01:16:29;;;;;;;7.70;4.13;;;16.90;99.90;;;;;;5139795;27;20371;-63
2023/07/19 01:18:55;;;;;;;7.68;3.90;;;16.90;99.90;;;;;;5139744;27;20046;-63
2023/07/19 01:21:22;;;;;;;8.05;3.67;;;16.90;99.90;;;;;;5158120;27;20043;-63
2023/07/19 01:23:48;;;;;;;9.07;4.18;;;16.80;99.90;;;;;;5140168;27;20042;-63
2023/07/19 01:26:14;;;;;;;5.95;2.78;;;16.80;99.90;;;;;;5158369;27;20110;-63
2023/07/19 01:28:39;;;;;;;4.95;2.35;;;16.80;99.90;;;;;;5157852;27;20121;-63
2023/07/19 01:31:06;;;;;;;7.47;2.70;;;16.80;99.90;;;;;;5139470;27;20475;-63
2023/07/19 01:33:32;;;;;;;6.63;2.92;;;16.80;99.90;;;;;;5158285;27;20129;-63
2023/07/19 01:35:58;;;;;;;6.95;2.63;;;16.90;99.90;;;;;;5157995;27;20126;-63
2023/07/19 01:38:24;;;;;;;7.18;2.97;;;16.90;99.90;;;;;;5157873;27;20127;-63
2023/07/19 01:40:50;;;;;;;7.93;3.83;;;16.90;99.90;;;;;;5139338;27;20039;-63
2023/07/19 01:43:15;;;;;;;8.55;4.28;;;16.90;99.90;;;;;;5139206;27;20046;-63
2023/07/19 01:45:42;;;;;;;9.05;4.10;;;16.90;99.90;;;;;;5157835;27;20402;-63
2023/07/19 01:48:07;;;;;;;6.97;3.50;;;16.90;99.90;;;;;;5157960;27;20466;-63
2023/07/19 01:50:33;;;;;;;6.78;3.20;;;16.90;99.90;;;;;;5139363;27;20088;-63
2023/07/19 01:52:59;;;;;;;7.18;3.75;;;16.80;99.90;;;;;;5122040;27;20151;-63
2023/07/19 01:55:25;;;;;;;6.72;2.60;;;16.80;99.90;;;;;;5157794;27;20419;-63
2023/07/19 01:57:50;;;;;;;6.13;2.50;;;16.80;99.90;;;;;;5157472;27;20045;-63
2023/07/19 02:00:16;;;;;;;7.72;3.97;;;16.80;99.90;;;;;;5138909;27;20045;-63
2023/07/19 02:02:42;;;;;;;8.45;3.85;;;16.90;99.90;;;;;;5157329;27;20099;-62
2023/07/19 02:05:08;;;;;;;7.93;4.00;;;16.90;99.90;;;;;;5157723;27;20038;-62
2023/07/19 02:07:35;;;;;;;8.02;3.97;;;16.90;99.90;;;;;;5157572;27;20558;-63
2023/07/19 02:10:01;;;;;;;6.00;2.53;;;16.90;99.90;;;;;;5138715;27;20043;-63
2023/07/19 02:12:27;;;;;;;5.10;2.50;;;16.90;99.90;;;;;;5139031;27;20042;-63
2023/07/19 02:14:55;;;;;;;7.20;2.90;;;16.90;99.90;;;;;;5157225;27;20046;-63
2023/07/19 02:17:21;;;;;;;5.90;2.70;;;16.90;99.90;;;;;;5157378;27;20478;-63
2023/07/19 02:19:47;;;;;;;7.10;3.40;;;17.00;99.90;;;;;;5138591;27;20038;-63
2023/07/19 02:22:15;;;;;;;7.28;3.08;;;17.00;99.90;;;;;;5138127;27;20091;-63
2023/07/19 02:24:41;;;;;;;8.02;3.15;;;17.00;99.90;;;;;;5157064;27;20095;-63
2023/07/19 02:27:07;;;;;;;5.80;2.50;;;17.00;99.90;;;;;;5157298;27;20168;-63
2023/07/19 02:29:33;;;;;;;6.90;2.95;;;16.90;99.90;;;;;;5138083;27;20523;-63
2023/07/19 02:31:59;;;;;;;6.15;3.05;;;16.90;99.90;;;;;;5156819;27;20339;-63
2023/07/19 02:34:25;;;;;;;8.07;3.42;;;16.90;99.90;;;;;;5156799;27;20156;-63
2023/07/19 02:36:51;;;;;;;7.82;2.80;;;16.90;99.90;;;;;;5138428;27;20039;-63
2023/07/19 02:39:17;;;;;;;7.07;3.50;;;16.80;99.90;;;;;;5138451;27;20035;-63
2023/07/19 02:41:43;;;;;;;6.53;2.55;;;16.80;99.90;;;;;;5156631;27;20042;-63
2023/07/19 02:44:08;;;;;;;7.35;3.70;;;16.80;99.90;;;;;;5138335;27;20047;-63
2023/07/19 02:46:35;;;;;;;6.80;3.33;;;16.80;99.90;;;;;;5156695;27;20070;-64
2023/07/19 02:49:01;;;;;;;7.18;3.25;;;16.80;99.90;;;;;;5137916;27;20393;-64
2023/07/19 02:51:27;;;;;;;6.03;3.05;;;16.70;99.90;;;;;;5138197;27;20034;-63
2023/07/19 02:53:52;;;;;;;6.00;2.80;;;16.70;99.90;;;;;;5156705;27;20070;-63
2023/07/19 02:56:18;;;;;;;7.70;2.92;;;16.70;99.90;;;;;;5156519;27;20057;-64
2023/07/19 02:58:44;;;;;;;7.18;3.50;;;16.70;99.90;;;;;;5156582;27;20034;-62
2023/07/19 03:01:14;;;;;;;6.45;3.55;;;16.70;99.90;;;;;;5156266;27;20486;-63
2023/07/19 03:03:42;;;;;;;6.85;3.92;;;16.70;99.90;;;;;;5156236;27;20091;-63
2023/07/19 03:06:12;;;;;;;8.63;4.20;;;16.70;99.90;;;;;;5137937;27;20038;-63
2023/07/19 03:08:38;;;;;;;7.10;3.70;;;16.70;99.90;;;;;;5156331;27;20070;-63
2023/07/19 03:11:06;;;;;;;7.63;4.13;;;16.70;99.90;;;;;;5156442;27;20038;-63
2023/07/19 03:13:31;;;;;;;8.23;4.90;;;16.70;99.90;;;;;;5155933;27;20043;-64
2023/07/19 03:15:58;;;;;;;8.23;4.47;;;16.60;99.90;;;;;;5137763;27;20045;-63
2023/07/19 03:18:23;;;;;;;8.35;4.90;;;16.70;99.90;;;;;;5156177;27;20122;-63
2023/07/19 03:21:00;;;;;;;7.22;4.43;;;16.60;99.90;;;;;;5137392;27;20184;-64
2023/07/19 03:23:27;;;;;;;9.60;5.82;;;16.60;99.90;;;;;;5156123;27;20486;-63
2023/07/19 03:25:57;;;;;;;9.55;4.90;;;16.60;99.90;;;;;;5137215;27;20039;-63
2023/07/19 03:28:28;;;;;;;8.63;5.55;;;16.60;99.90;;;;;;5155426;27;20106;-63
2023/07/19 03:30:54;;;;;;;9.40;5.60;;;16.60;99.90;;;;;;5155915;27;20085;-63
2023/07/19 03:33:24;;;;;;;11.90;6.30;;;16.60;99.90;;;;;;5136689;27;20026;-63
2023/07/19 03:35:50;;;;;;;9.45;5.75;;;16.60;99.90;;;;;;5155953;27;20038;-64
2023/07/19 03:38:18;;;;;;;10.15;5.90;;;16.50;99.90;;;;;;5155907;27;20035;-63
2023/07/19 03:40:44;;;;;;;10.05;4.95;;;16.50;99.90;;;;;;5155841;27;20061;-65
2023/07/19 03:43:10;;;;;;;8.25;5.20;;;16.50;99.90;;;;;;5155779;27;20039;-64
2023/07/19 03:45:36;;;;;;;8.02;5.10;;;16.60;99.90;;;;;;5155832;27;20371;-63
2023/07/19 03:48:02;;;;;;;8.18;5.38;;;16.60;99.90;;;;;;5155738;27;20039;-64
2023/07/19 03:50:28;;;;;;;9.35;5.50;;;16.60;99.90;;;;;;5155335;27;20045;-63
2023/07/19 03:52:53;;;;;;;12.15;7.50;;;16.60;99.90;;;;;;5155597;27;20031;-63
2023/07/19 03:55:20;;;;;;;8.90;5.10;;;16.50;99.90;;;;;;5155533;27;20133;-63
2023/07/19 03:57:47;;;;;;;9.13;5.60;;;16.50;99.90;;;;;;5137262;27;20065;-63
2023/07/19 04:00:13;;;;;;;10.23;6.63;;;16.50;99.90;;;;;;5155254;27;20106;-63
2023/07/19 04:02:38;;;;;;;11.95;6.97;;;16.50;99.90;;;;;;5155146;27;20039;-64
2023/07/19 04:05:04;;;;;;;11.95;6.70;;;16.50;99.90;;;;;;5155098;27;20035;-64
2023/07/19 04:07:30;;;;;;;9.68;6.55;;;16.60;99.90;;;;;;5154856;27;20034;-64
2023/07/19 04:09:56;;;;;;;10.05;6.05;;;16.50;99.90;;;;;;5136748;27;20035;-63
2023/07/19 04:12:22;;;;;;;11.63;7.32;;;16.50;99.90;;;;;;5154980;27;20031;-62
2023/07/19 04:14:48;;;;;;;12.90;8.57;;;16.50;99.90;;;;;;5136854;27;20078;-62
2023/07/19 04:17:14;;;;;;;9.95;7.70;;;16.50;99.90;;;;;;5155147;27;20539;-65
2023/07/19 04:19:39;;;;;;;11.57;8.05;;;16.50;99.90;;;;;;5136731;27;20485;-62
2023/07/19 04:22:05;;;;;;;13.40;7.82;;;16.40;99.90;;;;;;5136784;27;20457;-63
2023/07/19 04:24:31;;;;;;;12.05;8.30;;;16.40;99.90;;;;;;5155052;27;20038;-63
2023/07/19 04:26:57;;;;;;;10.57;7.90;;;16.40;99.90;;;;;;5136712;27;20034;-63
2023/07/19 04:29:23;;;;;;;10.80;7.65;;;16.30;99.90;;;;;;5154443;27;20188;-62
2023/07/19 04:31:48;;;;;;;9.70;7.32;;;16.30;99.90;;;;;;5136174;27;20046;-62
2023/07/19 04:34:14;;;;;;;11.30;6.97;;;16.30;99.90;;;;;;5136633;27;20075;-62
2023/07/19 04:36:42;;;;;;;11.10;7.82;;;16.40;99.90;;;;;;5136184;27;20046;-62
2023/07/19 04:39:08;;;;;;;11.35;7.20;;;16.40;99.90;;;;;;5136595;27;20042;-62
2023/07/19 04:41:34;;;;;;;10.82;6.95;;;16.40;99.90;;;;;;5154902;27;20035;-62
2023/07/19 04:44:00;;;;;;;11.63;7.20;;;16.50;99.90;;;;;;5136635;27;20125;-62
2023/07/19 04:46:26;;;;;;;12.80;8.93;;;16.50;99.90;;;;;;5158964;27;20127;-62
2023/07/19 04:48:51;;;;;;;10.38;7.85;;;16.50;99.90;;;;;;5140289;27;20043;-62
2023/07/19 04:51:18;;;;;;;11.30;7.63;;;16.50;99.90;;;;;;5140332;27;20045;-62
2023/07/19 04:53:43;;;;;;;12.32;8.40;;;16.50;99.90;;;;;;5140258;27;20038;-63
2023/07/19 04:56:09;;;;;;;12.52;8.57;;;16.50;99.90;;;;;;5158711;27;20038;-62
2023/07/19 04:58:35;;;;;;;12.88;8.80;;;16.50;99.90;;;;;;5123070;27;20125;-62
2023/07/19 05:01:08;;;;;;;12.05;7.72;;;16.50;99.90;;;;;;5139949;27;20078;-62
2023/07/19 05:03:35;;;;;;;11.98;8.45;;;16.50;99.90;;;;;;5123579;27;20055;-62
2023/07/19 05:06:01;;;;;;;14.73;8.60;;;16.60;99.90;;;;;;5140011;27;20042;-62
2023/07/19 05:08:27;;;;;;;11.90;7.13;;;16.60;99.90;;;;;;5122785;27;20089;-62
2023/07/19 05:10:52;;;;;;;14.98;8.05;;;16.70;99.90;;;;;;5158771;27;20062;-60
2023/07/19 05:13:18;;;;;;;12.43;8.68;;;16.80;99.90;;;;;;5139943;27;20531;-61
2023/07/19 05:15:47;;;;;;;13.15;8.75;;;16.80;99.90;;;;;;5158680;27;20111;-62
2023/07/19 05:18:13;;;;;;;13.20;8.55;;;16.80;99.90;;;;;;5140624;27;20043;-61
2023/07/19 05:20:39;;;;;;;12.73;8.20;;;16.90;99.90;;;;;;5139653;27;20498;-62
2023/07/19 05:23:05;;;;;;;11.18;8.30;;;16.90;99.90;;;;;;5158497;27;20039;-63
2023/07/19 05:25:30;;;;;;;12.13;8.50;;;17.00;99.90;;;;;;5158216;27;20027;-62
2023/07/19 05:27:56;;;;;;;11.88;7.88;;;17.00;99.90;;;;;;5157883;27;20061;-63
2023/07/19 05:30:22;;;;;;;11.95;7.68;;;17.00;99.90;;;;;;5139566;27;20046;-63
2023/07/19 05:32:48;;;;;;;12.30;7.78;;;17.00;99.90;;;;;;5158284;27;20046;-62
2023/07/19 05:35:14;;;;;;;11.35;7.10;;;17.00;99.90;;;;;;5158290;27;20469;-62
2023/07/19 05:37:48;;;;;;;11.35;7.13;;;17.10;99.90;;;;;;5157882;27;20533;-62
2023/07/19 05:40:15;;;;;;;11.63;8.05;;;17.10;99.90;;;;;;5158228;27;20119;-63
2023/07/19 05:42:40;;;;;;;10.95;7.45;;;17.10;99.90;;;;;;5157859;27;20042;-62
2023/07/19 05:45:07;;;;;;;10.05;7.03;;;17.00;99.90;;;;;;5139345;27;20034;-62
2023/07/19 05:47:33;;;;;;;11.60;6.78;;;17.00;99.90;;;;;;5157937;27;20031;-62
2023/07/19 05:49:58;;;;;;;11.20;6.70;;;17.00;99.90;;;;;;5139286;27;20047;-62
2023/07/19 05:52:27;;;;;;;11.32;6.97;;;17.10;99.90;;;;;;5157648;27;20091;-62
2023/07/19 05:54:52;;;;;;;10.35;6.28;;;17.00;99.90;;;;;;5157895;27;20091;-62
2023/07/19 05:57:19;;;;;;;11.77;7.30;;;17.00;99.90;;;;;;5157126;27;20030;-63
2023/07/19 05:59:45;;;;;;;10.15;6.30;;;17.00;99.90;;;;;;5157488;27;20046;-62
2023/07/19 06:02:10;;;;;;;10.80;6.07;;;16.90;99.90;;;;;;5157626;27;20050;-62
2023/07/19 06:04:36;;;;;;;12.02;6.05;;;16.90;99.90;;;;;;5139167;27;20045;-63
2023/07/19 06:07:02;;;;;;;11.05;6.28;;;16.90;99.90;;;;;;5138951;27;20049;-63
2023/07/19 06:09:28;;;;;;;12.68;6.53;;;16.90;99.90;;;;;;5138661;27;20046;-63
2023/07/19 06:11:56;;;;;;;9.07;6.30;;;16.90;99.90;;;;;;5157279;27;20037;-62
2023/07/19 06:14:23;;;;;;;9.68;5.57;;;16.90;99.90;;;;;;5138711;27;20103;-62
2023/07/19 06:16:49;;;;;;;8.45;4.75;;;16.90;99.90;;;;;;5138582;27;20034;-62
2023/07/19 06:19:16;;;;;;;8.93;5.78;;;16.90;99.90;;;;;;5139100;27;20065;-62
2023/07/19 06:21:42;;;;;;;9.57;5.75;;;16.90;99.90;;;;;;5072506;27;20105;-64
2023/07/19 06:24:07;;;;;;;8.52;5.40;;;17.00;99.90;;;;;;5095442;28;20040;-61
2023/07/19 06:26:33;;;;;;;9.57;5.55;;;17.00;99.90;;;;;;5095549;28;20047;-61
2023/07/19 06:28:59;;;;;;;7.63;4.88;;;17.00;99.90;;;;;;5095206;28;20055;-61
2023/07/19 06:31:25;;;;;;;8.98;5.07;;;17.00;99.90;;;;;;5094084;28;20036;-62
2023/07/19 06:33:51;;;;;;;9.48;5.28;;;17.00;99.90;;;;;;5095363;28;20050;-61
2023/07/19 06:36:16;;;;;;;8.00;4.95;;;17.10;99.90;;;;;;5095521;28;20035;-61
2023/07/19 06:38:42;;;;;;;9.52;5.47;;;17.10;99.90;;;;;;5095439;28;20465;-61
2023/07/19 06:41:08;;;;;;;9.10;5.47;;;17.20;99.90;;;;;;5067011;28;20064;-61
2023/07/19 06:43:34;;;;;;;8.30;5.10;;;17.10;99.90;;;;;;5067767;28;20047;-61
2023/07/19 06:46:00;;;;;;;8.65;4.75;;;17.20;99.90;;;;;;5094971;28;20055;-62
2023/07/19 06:48:26;;;;;;;7.38;4.70;;;17.20;99.90;;;;;;5093990;28;20048;-62
2023/07/19 06:50:51;;;;;;;8.60;4.30;;;17.20;99.90;;;;;;5095129;28;20388;-62
2023/07/19 06:53:17;;;;;;;8.93;4.35;;;17.20;99.90;;;;;;5093741;28;20060;-62
2023/07/19 06:55:43;;;;;;;7.28;4.13;;;17.20;99.90;;;;;;5095107;28;20435;-62
2023/07/19 06:58:09;;;;;;;7.57;3.78;;;17.20;99.90;;;;;;5095044;28;20048;-62
2023/07/19 07:00:35;;;;;;;9.00;4.35;;;17.20;99.90;;;;;;5094770;28;20040;-62
2023/07/19 07:03:00;;;;;;;7.72;4.20;;;17.20;99.90;;;;;;5094826;28;20430;-61
2023/07/19 07:05:26;;;;;;;8.02;4.07;;;17.30;99.90;;;;;;5076468;28;20381;-62
2023/07/19 07:07:52;;;;;;;8.45;4.10;;;17.30;99.90;;;;;;5093666;28;20097;-62
2023/07/19 07:10:18;;;;;;;8.27;4.32;;;17.40;99.90;;;;;;5094807;28;20400;-62
2023/07/19 07:12:44;;;;;;;10.02;4.50;;;17.50;99.90;;;;;;5094790;28;20418;-62
2023/07/19 07:15:09;;;;;;;8.15;4.25;;;17.60;99.90;;;;;;5094723;28;20044;-62
2023/07/19 07:17:38;;;;;;;8.70;4.50;;;17.80;99.90;;;;;;5094733;28;20498;-62
2023/07/19 07:20:06;;;;;;;8.15;4.20;;;17.90;99.90;;;;;;5094577;28;20475;-62
2023/07/19 07:22:32;;;;;;;8.57;3.80;;;18.00;99.90;;;;;;5094611;28;20515;-62
2023/07/19 07:24:59;;;;;;;9.43;3.58;;;18.10;99.90;;;;;;5094566;28;20388;-62
2023/07/19 07:27:27;;;;;;;11.13;3.58;;;18.30;99.90;;;;;;5093259;28;20531;-61
2023/07/19 07:29:52;;;;;;;8.40;3.17;;;18.50;99.90;;;;;;5093827;28;20052;-62
2023/07/19 07:32:18;;;;;;;7.68;3.33;;;18.60;99.90;;;;;;5094442;28;20040;-61
2023/07/19 07:34:44;;;;;;;8.55;3.20;;;18.70;99.90;;;;;;5094345;28;20119;-61
2023/07/19 07:37:10;;;;;;;6.13;2.85;;;18.80;99.90;;;;;;5094283;28;20038;-62
2023/07/19 07:39:35;;;;;;;6.40;2.90;;;18.80;99.90;;;;;;5092765;28;20040;-62
2023/07/19 07:42:01;;;;;;;7.65;2.83;;;18.90;99.90;;;;;;5076116;28;20048;-62
2023/07/19 07:44:27;;;;;;;7.50;2.90;;;18.90;99.90;;;;;;5091812;28;20032;-62
2023/07/19 07:46:53;;;;;;;5.38;2.40;;;18.80;99.90;;;;;;5059226;28;20036;-65
2023/07/19 07:49:19;;;;;;;6.80;2.55;;;18.70;99.90;;;;;;5073436;28;20521;-62
2023/07/19 07:51:44;;;;;;;7.63;2.58;;;18.70;99.90;;;;;;5072562;28;20074;-62
2023/07/19 07:54:10;;;;;;;5.45;2.40;;;18.60;99.90;;;;;;5073619;28;20040;-62
2023/07/19 07:56:36;;;;;;;6.80;2.45;;;18.60;99.90;;;;;;5072641;28;20530;-62
2023/07/19 07:59:02;;;;;;;6.65;2.40;;;18.70;99.90;;;;;;5073652;28;20116;-62
2023/07/19 08:01:28;;;;;;;7.13;2.30;;;18.70;99.90;;;;;;5072456;28;20142;-62
2023/07/19 08:03:54;;;;;;;6.68;2.50;;;18.80;99.90;;;;;;5073549;28;20119;-62
2023/07/19 08:06:19;;;;;;;6.38;2.10;;;19.00;99.90;;;;;;5072230;28;20076;-62
2023/07/19 08:08:45;;;;;;;5.95;2.35;;;19.10;99.90;;;;;;5073482;28;20051;-62
2023/07/19 08:11:11;;;;;;;5.55;2.20;;;19.20;99.90;;;;;;5055400;28;20048;-62
2023/07/19 08:13:40;;;;;;;6.68;2.45;;;19.40;99.90;;;;;;5073545;28;20031;-62
2023/07/19 08:16:06;;;;;;;7.70;2.35;;;19.50;99.90;;;;;;5073136;28;20101;-62
2023/07/19 08:18:34;;;;;;;7.25;2.30;;;19.60;99.90;;;;;;5073044;28;20123;-62
2023/07/19 08:21:00;;;;;;;6.63;2.30;;;19.70;99.90;;;;;;5071943;28;20040;-62
2023/07/19 08:23:26;;;;;;;6.43;2.33;;;19.70;99.90;;;;;;5073393;28;20044;-62
2023/07/19 08:25:58;;;;;;;6.80;2.30;;;19.70;99.90;;;;;;5071987;28;20051;-62
2023/07/19 08:28:25;;;;;;;5.50;2.35;;;19.70;99.90;;;;;;5072819;28;20102;-62
2023/07/19 08:30:54;;;;;;;8.00;2.35;;;19.70;99.90;;;;;;5048468;28;20048;-61
2023/07/19 08:33:24;;;;;;;6.05;2.30;;;19.70;99.90;;;;;;5071627;28;20045;-63
2023/07/19 08:35:50;;;;;;;7.28;2.28;;;19.70;99.90;;;;;;5073233;28;20075;-61
2023/07/19 08:38:17;;;;;;;7.55;2.05;;;19.80;99.90;;;;;;5073533;28;20045;-61
2023/07/19 08:40:55;;;;;;;6.53;2.40;;;19.80;99.90;;;;;;5071903;28;20044;-62
2023/07/19 08:43:26;;;;;;;8.20;2.35;;;19.90;99.90;;;;;;5073128;28;20068;-62
2023/07/19 08:45:52;;;;;;;7.18;2.42;;;20.00;99.90;;;;;;5039993;28;20082;-62
2023/07/19 08:48:19;;;;;;;7.00;2.45;;;20.00;99.90;;;;;;5073012;28;20481;-62
2023/07/19 08:50:53;;;;;;;7.35;2.22;;;20.00;99.90;;;;;;5071856;28;20392;-62
2023/07/19 08:53:19;;;;;;;7.40;2.20;;;20.00;99.90;;;;;;5071534;28;20076;-61
2023/07/19 08:55:45;;;;;;;5.43;2.10;;;20.00;99.90;;;;;;5073046;28;20079;-62
2023/07/19 08:58:10;;;;;;;5.05;2.00;;;20.00;99.90;;;;;;5071838;28;20045;-62
2023/07/19 09:00:38;;;;;;;6.45;2.30;;;20.10;99.90;;;;;;5072928;28;20047;-62
2023/07/19 09:03:04;;;;;;;5.85;2.53;;;20.10;99.90;;;;;;5071815;28;20075;-61
2023/07/19 09:05:30;;;;;;;5.90;2.30;;;20.10;99.90;;;;;;5072678;28;20041;-62
2023/07/19 09:08:00;;;;;;;7.40;2.30;;;20.10;99.90;;;;;;5054468;28;20136;-62
2023/07/19 09:10:26;;;;;;;6.47;2.20;;;20.20;99.90;;;;;;5073026;28;20138;-62
2023/07/19 09:12:52;;;;;;;5.97;2.28;;;20.20;99.90;;;;;;5072942;28;20142;-62
2023/07/19 09:15:18;;;;;;;7.80;2.60;;;20.30;99.90;;;;;;5072927;28;20037;-63
2023/07/19 09:17:46;;;;;;;5.93;2.20;;;20.30;99.90;;;;;;5071416;28;20066;-63
2023/07/19 09:20:13;;;;;;;5.57;2.35;;;20.30;99.90;;;;;;5071765;28;20125;-62
2023/07/19 09:22:39;;;;;;;5.90;2.20;;;20.30;99.90;;;;;;5071233;28;20177;-62
2023/07/19 09:25:09;;;;;;;8.75;2.53;;;20.30;99.90;;;;;;5072440;28;20036;-65
2023/07/19 09:27:35;;;;;;;7.65;2.30;;;20.20;99.90;;;;;;5072499;28;20041;-62
2023/07/19 09:30:03;;;;;;;8.07;2.50;;;20.10;99.90;;;;;;5072205;28;20052;-62
2023/07/19 09:32:29;;;;;;;6.68;2.40;;;20.10;99.90;;;;;;5074327;28;20041;-62
2023/07/19 09:34:57;;;;;;;6.75;2.10;;;20.10;99.90;;;;;;5075146;28;20072;-62
2023/07/19 09:37:25;;;;;;;7.90;2.35;;;20.10;99.90;;;;;;5076184;28;20040;-63
2023/07/19 09:39:52;;;;;;;5.97;2.03;;;20.00;99.90;;;;;;5058677;28;20135;-62
2023/07/19 09:42:19;;;;;;;6.45;1.80;;;19.90;99.90;;;;;;5074766;28;20072;-62
2023/07/19 09:44:49;;;;;;;6.00;2.00;;;20.00;99.90;;;;;;5076183;28;20106;-63
2023/07/19 09:47:15;;;;;;;7.43;2.00;;;19.90;99.90;;;;;;5074662;28;20056;-63
2023/07/19 09:49:42;;;;;;;7.20;2.13;;;19.90;99.90;;;;;;5057904;28;20477;-62
2023/07/19 09:52:18;;;;;;;5.40;1.88;;;19.80;99.90;;;;;;5074670;28;20442;-62
2023/07/19 09:54:44;;;;;;;5.15;1.80;;;19.70;99.90;;;;;;5076113;28;20047;-62
2023/07/19 09:57:11;;;;;;;7.10;2.10;;;19.70;99.90;;;;;;5075919;28;20044;-63
2023/07/19 09:59:49;;;;;;;7.10;1.90;;;19.60;99.90;;;;;;5074825;28;20582;-62
2023/07/19 10:02:15;;;;;;;5.47;2.03;;;19.50;99.90;;;;;;5075513;28;20106;-62
2023/07/19 10:04:44;;;;;;;5.55;1.95;;;19.50;99.90;;;;;;5075621;28;20044;-63
2023/07/19 10:07:14;;;;;;;5.47;1.60;;;19.60;99.90;;;;;;5075739;28;20476;-62
2023/07/19 10:09:43;;;;;;;6.30;1.65;;;19.80;99.90;;;;;;5074122;28;20045;-62
2023/07/19 10:12:17;;;;;;;5.10;1.70;;;19.90;99.90;;;;;;5075535;28;20495;-62
2023/07/19 10:14:58;;;;;;;5.03;1.50;;;20.00;99.90;;;;;;5075675;28;20541;-63
2023/07/19 10:17:25;;;;;;;4.80;1.60;;;20.00;99.90;;;;;;5074481;28;20124;-62
2023/07/19 10:20:21;;;;;;;5.32;1.50;;;20.20;99.90;;;;;;5075558;28;20550;-62
2023/07/19 10:22:56;;;;;;;3.97;1.30;;;20.30;99.90;;;;;;5072703;28;20152;-62
2023/07/19 10:25:27;;;;;;;5.78;1.60;;;20.50;99.90;;;;;;5075222;28;20044;-62
2023/07/19 10:28:00;;;;;;;5.80;1.60;;;20.80;99.90;;;;;;5074997;28;20036;-62
2023/07/19 10:30:54;;;;;;;6.32;1.60;;;20.80;99.90;;;;;;5075396;28;20558;-62
2023/07/19 10:33:31;;;;;;;4.47;1.63;;;21.00;99.90;;;;;;5074988;28;20041;-62
2023/07/19 10:36:04;;;;;;;5.28;1.50;;;21.10;99.90;;;;;;5074964;28;20044;-62
2023/07/19 10:38:30;;;;;;;5.72;1.50;;;21.30;99.90;;;;;;5076123;28;20533;-62
2023/07/19 10:40:59;;;;;;;4.85;1.42;;;21.30;99.90;;;;;;5078055;28;20090;-62
2023/07/19 10:43:26;;;;;;;5.20;1.52;;;21.40;99.90;;;;;;5073392;28;20128;-62
2023/07/19 10:45:53;;;;;;;6.88;1.70;;;21.60;99.90;;;;;;5074687;28;20044;-63
2023/07/19 10:48:28;;;;;;;4.60;1.50;;;21.80;99.90;;;;;;5074961;28;20045;-62
2023/07/19 10:51:01;;;;;;;5.22;1.60;;;22.00;99.90;;;;;;5074623;28;20045;-62
2023/07/19 10:53:27;;;;;;;4.82;1.40;;;22.10;99.90;;;;;;5074957;28;20091;-62
2023/07/19 10:55:54;;;;;;;4.68;1.45;;;22.20;99.90;;;;;;5073313;28;20063;-63
2023/07/19 10:58:27;;;;;;;4.30;1.20;;;22.20;99.90;;;;;;5073336;28;20123;-62
2023/07/19 11:00:54;;;;;;;3.72;1.33;;;22.10;99.90;;;;;;5073328;28;20036;-62
2023/07/19 11:03:23;;;;;;;3.40;1.20;;;22.00;99.90;;;;;;5073663;28;20048;-63
2023/07/19 11:05:50;;;;;;;5.40;1.33;;;21.90;99.90;;;;;;5090066;28;20075;-62
2023/07/19 11:08:19;;;;;;;5.75;1.38;;;21.90;99.90;;;;;;5074240;28;20036;-63
2023/07/19 11:10:45;;;;;;;3.83;1.38;;;21.90;99.90;;;;;;5072930;28;20123;-62
2023/07/19 11:13:15;;;;;;;3.90;1.38;;;21.90;99.90;;;;;;5074555;28;20540;-62
2023/07/19 11:15:49;;;;;;;3.70;1.27;;;21.90;99.90;;;;;;5074165;28;20048;-62
2023/07/19 11:18:27;;;;;;;4.25;1.30;;;21.80;99.90;;;;;;5074348;28;20539;-62
2023/07/19 11:20:57;;;;;;;3.97;1.35;;;21.50;99.90;;;;;;5074384;28;20037;-62
2023/07/19 11:23:27;;;;;;;5.20;1.30;;;21.40;99.90;;;;;;5072671;28;20082;-62
2023/07/19 11:26:06;;;;;;;6.18;1.40;;;21.30;99.90;;;;;;5072721;28;20048;-62
2023/07/19 11:28:42;;;;;;;4.45;1.40;;;21.00;99.90;;;;;;5072378;28;20056;-62
2023/07/19 11:31:10;;;;;;;4.20;1.33;;;20.90;99.90;;;;;;5074075;28;20063;-62
2023/07/19 11:33:36;;;;;;;5.55;1.60;;;20.70;99.90;;;;;;5072907;28;20082;-62
2023/07/19 11:36:12;;;;;;;4.05;1.33;;;20.60;99.90;;;;;;5074043;28;20090;-62
2023/07/19 11:38:38;;;;;;;4.57;1.23;;;20.40;99.90;;;;;;5073633;28;20050;-62
2023/07/19 11:41:04;;;;;;;3.65;1.23;;;20.30;99.90;;;;;;5072534;28;20040;-63
2023/07/19 11:43:30;;;;;;;4.65;1.20;;;20.10;99.90;;;;;;5073536;28;20036;-62
2023/07/19 11:45:56;;;;;;;4.63;1.38;;;19.90;99.90;;;;;;5073932;28;20040;-62
2023/07/19 11:48:22;;;;;;;3.58;1.20;;;19.80;99.90;;;;;;5072295;28;20041;-62
2023/07/19 11:50:48;;;;;;;4.13;1.27;;;19.90;99.90;;;;;;5072250;28;20047;-63
2023/07/19 11:53:14;;;;;;;3.38;1.13;;;19.90;99.90;;;;;;5073241;28;20477;-62
2023/07/19 11:55:39;;;;;;;3.58;1.20;;;19.70;99.90;;;;;;5071915;28;20032;-62
2023/07/19 11:58:05;;;;;;;4.32;1.40;;;19.50;99.90;;;;;;5073367;28;20113;-62
2023/07/19 12:00:33;;;;;;;4.82;1.50;;;19.40;99.90;;;;;;5073610;28;20036;-62
2023/07/19 12:03:00;;;;;;;5.25;1.50;;;19.30;99.90;;;;;;5073514;28;20110;-63
2023/07/19 12:05:26;;;;;;;7.05;1.80;;;19.30;99.90;;;;;;5073568;28;20047;-62
2023/07/19 12:07:52;;;;;;;5.60;1.80;;;19.30;99.90;;;;;;5073197;28;20047;-63
2023/07/19 12:10:19;;;;;;;4.15;1.70;;;19.40;99.90;;;;;;5073503;28;20037;-62
2023/07/19 12:12:48;;;;;;;5.13;1.90;;;19.40;99.90;;;;;;5072168;28;20123;-63
2023/07/19 12:15:14;;;;;;;6.22;1.77;;;19.60;99.90;;;;;;5073171;28;20045;-61
2023/07/19 12:17:40;;;;;;;4.65;1.50;;;19.90;99.90;;;;;;5072150;28;20037;-61
2023/07/19 12:20:07;;;;;;;4.30;1.25;;;20.20;99.90;;;;;;5073414;28;20063;-63
2023/07/19 12:22:35;;;;;;;4.13;1.40;;;20.40;99.90;;;;;;5073077;28;20039;-63
2023/07/19 12:25:01;;;;;;;3.90;1.30;;;20.50;99.90;;;;;;5073020;28;20033;-63
2023/07/19 12:27:27;;;;;;;5.60;1.50;;;20.60;99.90;;;;;;5072191;28;20496;-63
2023/07/19 12:29:53;;;;;;;6.10;1.58;;;20.60;99.90;;;;;;5072672;28;20056;-63
2023/07/19 12:32:19;;;;;;;6.25;1.60;;;20.60;99.90;;;;;;5073339;28;20040;-63
2023/07/19 12:34:46;;;;;;;5.32;1.80;;;20.70;99.90;;;;;;5073290;28;20040;-62
2023/07/19 12:37:13;;;;;;;5.38;1.70;;;20.60;99.90;;;;;;5072928;28;20045;-62
2023/07/19 12:39:40;;;;;;;5.75;1.60;;;20.60;99.90;;;;;;5071607;28;20048;-62
2023/07/19 12:42:07;;;;;;;5.72;2.00;;;20.60;99.90;;;;;;5072930;28;20080;-62
2023/07/19 12:44:34;;;;;;;6.25;1.95;;;20.60;99.90;;;;;;5072807;28;20036;-63